sensor_id;sensor_type;location;lat;lon;timestamp;temperature;humidity
35246;DHT22;21379;50.962;6.960;2023-04-06T00:00:35;3.40;99.90
35246;DHT22;21379;50.962;6.960;2023-04-06T00:03:02;3.40;99.90
35246;DHT22;21379;50.962;6.960;2023-04-06T00:05:29;3.30;99.90
35246;DHT22;21379;50.962;6.960;2023-04-06T00:07:58;3.30;99.90
35246;DHT22;21379;50.962;6.960;2023-04-06T00:10:26;3.30;99.90
35246;DHT22;21379;50.962;6.960;2023-04-06T00:12:53;3.30;99.90
35246;DHT22;21379;50.962;6.960;2023-04-06T00:15:20;3.30;99.90
35246;DHT22;21379;50.962;6.960;2023-04-06T00:17:47;3.30;99.90
35246;DHT22;21379;50.962;6.960;2023-04-06T00:20:14;3.20;99.90
35246;DHT22;21379;50.962;6.960;2023-04-06T00:22:41;3.20;99.90
35246;DHT22;21379;50.962;6.960;2023-04-06T00:25:10;3.20;99.90
35246;DHT22;21379;50.962;6.960;2023-04-06T00:27:37;3.10;99.90
35246;DHT22;21379;50.962;6.960;2023-04-06T00:30:05;3.10;99.90
35246;DHT22;21379;50.962;6.960;2023-04-06T00:32:36;3.10;99.90
35246;DHT22;21379;50.962;6.960;2023-04-06T00:35:03;3.00;99.90
35246;DHT22;21379;50.962;6.960;2023-04-06T00:37:30;3.20;99.90
35246;DHT22;21379;50.962;6.960;2023-04-06T00:39:57;3.20;99.90
35246;DHT22;21379;50.962;6.960;2023-04-06T00:42:27;3.10;99.90
35246;DHT22;21379;50.962;6.960;2023-04-06T00:44:55;3.10;99.90
35246;DHT22;21379;50.962;6.960;2023-04-06T00:47:23;3.10;99.90
35246;DHT22;21379;50.962;6.960;2023-04-06T00:49:50;3.00;99.90
35246;DHT22;21379;50.962;6.960;2023-04-06T00:52:19;3.10;99.90
35246;DHT22;21379;50.962;6.960;2023-04-06T00:54:48;3.00;99.90
35246;DHT22;21379;50.962;6.960;2023-04-06T00:57:16;3.00;99.90
35246;DHT22;21379;50.962;6.960;2023-04-06T00:59:45;3.00;99.90
35246;DHT22;21379;50.962;6.960;2023-04-06T01:02:13;3.00;99.90
35246;DHT22;21379;50.962;6.960;2023-04-06T01:04:46;2.90;99.90
35246;DHT22;21379;50.962;6.960;2023-04-06T01:07:22;2.80;99.90
35246;DHT22;21379;50.962;6.960;2023-04-06T01:10:03;2.80;99.90
35246;DHT22;21379;50.962;6.960;2023-04-06T01:12:32;2.80;99.90
35246;DHT22;21379;50.962;6.960;2023-04-06T01:15:04;2.80;99.90
35246;DHT22;21379;50.962;6.960;2023-04-06T01:17:34;2.70;99.90
35246;DHT22;21379;50.962;6.960;2023-04-06T01:20:08;2.70;99.90
35246;DHT22;21379;50.962;6.960;2023-04-06T01:22:37;2.70;99.90
35246;DHT22;21379;50.962;6.960;2023-04-06T01:25:05;2.70;99.90
35246;DHT22;21379;50.962;6.960;2023-04-06T01:27:40;2.60;99.90
35246;DHT22;21379;50.962;6.960;2023-04-06T01:30:11;2.60;99.90
35246;DHT22;21379;50.962;6.960;2023-04-06T01:32:43;2.60;99.90
35246;DHT22;21379;50.962;6.960;2023-04-06T01:35:13;2.60;99.90
35246;DHT22;21379;50.962;6.960;2023-04-06T01:37:50;2.50;99.90
35246;DHT22;21379;50.962;6.960;2023-04-06T01:40:24;2.60;99.90
35246;DHT22;21379;50.962;6.960;2023-04-06T01:42:52;2.50;99.90
35246;DHT22;21379;50.962;6.960;2023-04-06T01:45:27;2.50;99.90
35246;DHT22;21379;50.962;6.960;2023-04-06T01:48:00;2.50;99.90
35246;DHT22;21379;50.962;6.960;2023-04-06T01:50:28;2.50;99.90
35246;DHT22;21379;50.962;6.960;2023-04-06T01:52:57;2.40;99.90
35246;DHT22;21379;50.962;6.960;2023-04-06T01:55:26;2.40;99.90
35246;DHT22;21379;50.962;6.960;2023-04-06T01:58:13;2.40;99.90
35246;DHT22;21379;50.962;6.960;2023-04-06T02:00:41;2.40;99.90
35246;DHT22;21379;50.962;6.960;2023-04-06T02:03:08;2.40;99.90
35246;DHT22;21379;50.962;6.960;2023-04-06T02:05:36;2.40;99.90
35246;DHT22;21379;50.962;6.960;2023-04-06T02:08:07;2.40;99.90
35246;DHT22;21379;50.962;6.960;2023-04-06T02:10:37;2.40;99.90
35246;DHT22;21379;50.962;6.960;2023-04-06T02:13:13;2.40;99.90
35246;DHT22;21379;50.962;6.960;2023-04-06T02:15:45;2.50;99.90
35246;DHT22;21379;50.962;6.960;2023-04-06T02:18:12;2.50;99.90
35246;DHT22;21379;50.962;6.960;2023-04-06T02:20:40;2.40;99.90
35246;DHT22;21379;50.962;6.960;2023-04-06T02:23:08;2.30;99.90
35246;DHT22;21379;50.962;6.960;2023-04-06T02:25:35;2.30;99.90
35246;DHT22;21379;50.962;6.960;2023-04-06T02:28:03;2.30;99.90
35246;DHT22;21379;50.962;6.960;2023-04-06T02:30:30;2.30;99.90
35246;DHT22;21379;50.962;6.960;2023-04-06T02:32:59;2.20;99.90
35246;DHT22;21379;50.962;6.960;2023-04-06T02:35:27;2.20;99.90
35246;DHT22;21379;50.962;6.960;2023-04-06T02:37:55;2.10;99.90
35246;DHT22;21379;50.962;6.960;2023-04-06T02:40:23;2.10;99.90
35246;DHT22;21379;50.962;6.960;2023-04-06T02:42:50;2.10;99.90
35246;DHT22;21379;50.962;6.960;2023-04-06T02:45:25;2.00;99.90
35246;DHT22;21379;50.962;6.960;2023-04-06T02:47:54;2.00;99.90
35246;DHT22;21379;50.962;6.960;2023-04-06T02:50:21;2.00;99.90
35246;DHT22;21379;50.962;6.960;2023-04-06T02:52:56;2.00;99.90
35246;DHT22;21379;50.962;6.960;2023-04-06T02:55:24;1.90;99.90
35246;DHT22;21379;50.962;6.960;2023-04-06T02:57:51;1.90;99.90
35246;DHT22;21379;50.962;6.960;2023-04-06T03:00:23;1.90;99.90
35246;DHT22;21379;50.962;6.960;2023-04-06T03:02:50;1.90;99.90
35246;DHT22;21379;50.962;6.960;2023-04-06T03:05:18;1.90;99.90
35246;DHT22;21379;50.962;6.960;2023-04-06T03:07:46;2.00;99.90
35246;DHT22;21379;50.962;6.960;2023-04-06T03:10:23;2.00;99.90
35246;DHT22;21379;50.962;6.960;2023-04-06T03:12:50;2.00;99.90
35246;DHT22;21379;50.962;6.960;2023-04-06T03:15:23;2.00;99.90
35246;DHT22;21379;50.962;6.960;2023-04-06T03:17:57;2.20;99.90
35246;DHT22;21379;50.962;6.960;2023-04-06T03:20:39;2.20;99.90
35246;DHT22;21379;50.962;6.960;2023-04-06T03:23:06;2.10;99.90
35246;DHT22;21379;50.962;6.960;2023-04-06T03:25:39;2.00;99.90
35246;DHT22;21379;50.962;6.960;2023-04-06T03:28:08;1.90;99.90
35246;DHT22;21379;50.962;6.960;2023-04-06T03:30:43;1.90;99.90
35246;DHT22;21379;50.962;6.960;2023-04-06T03:33:11;1.90;99.90
35246;DHT22;21379;50.962;6.960;2023-04-06T03:35:48;1.80;99.90
35246;DHT22;21379;50.962;6.960;2023-04-06T03:38:15;1.90;99.90
35246;DHT22;21379;50.962;6.960;2023-04-06T03:40:43;1.80;99.90
35246;DHT22;21379;50.962;6.960;2023-04-06T03:43:11;1.70;99.90
35246;DHT22;21379;50.962;6.960;2023-04-06T03:45:39;1.70;99.90
35246;DHT22;21379;50.962;6.960;2023-04-06T03:48:06;1.70;99.90
35246;DHT22;21379;50.962;6.960;2023-04-06T03:50:35;1.70;99.90
35246;DHT22;21379;50.962;6.960;2023-04-06T03:53:02;1.80;99.90
35246;DHT22;21379;50.962;6.960;2023-04-06T03:55:29;1.70;99.90
35246;DHT22;21379;50.962;6.960;2023-04-06T03:57:58;1.70;99.90
35246;DHT22;21379;50.962;6.960;2023-04-06T04:00:25;1.70;99.90
35246;DHT22;21379;50.962;6.960;2023-04-06T04:02:55;1.70;99.90
35246;DHT22;21379;50.962;6.960;2023-04-06T04:05:22;1.70;99.90
35246;DHT22;21379;50.962;6.960;2023-04-06T04:07:51;1.70;99.90
35246;DHT22;21379;50.962;6.960;2023-04-06T04:10:22;1.70;99.90
35246;DHT22;21379;50.962;6.960;2023-04-06T04:12:49;1.70;99.90
35246;DHT22;21379;50.962;6.960;2023-04-06T04:15:18;1.70;99.90
35246;DHT22;21379;50.962;6.960;2023-04-06T04:17:45;1.70;99.90
35246;DHT22;21379;50.962;6.960;2023-04-06T04:20:14;1.70;99.90
35246;DHT22;21379;50.962;6.960;2023-04-06T04:22:42;1.70;99.90
35246;DHT22;21379;50.962;6.960;2023-04-06T04:25:09;1.70;99.90
35246;DHT22;21379;50.962;6.960;2023-04-06T04:27:42;1.70;99.90
35246;DHT22;21379;50.962;6.960;2023-04-06T04:30:10;1.60;99.90
35246;DHT22;21379;50.962;6.960;2023-04-06T04:32:39;1.60;99.90
35246;DHT22;21379;50.962;6.960;2023-04-06T04:35:09;1.60;99.90
35246;DHT22;21379;50.962;6.960;2023-04-06T04:37:40;1.50;99.90
35246;DHT22;21379;50.962;6.960;2023-04-06T04:40:09;1.50;99.90
35246;DHT22;21379;50.962;6.960;2023-04-06T04:42:53;1.50;99.90
35246;DHT22;21379;50.962;6.960;2023-04-06T04:45:33;1.60;99.90
35246;DHT22;21379;50.962;6.960;2023-04-06T04:48:12;1.60;99.90
35246;DHT22;21379;50.962;6.960;2023-04-06T04:50:50;1.60;99.90
35246;DHT22;21379;50.962;6.960;2023-04-06T04:53:21;1.60;99.90
35246;DHT22;21379;50.962;6.960;2023-04-06T04:55:49;1.60;99.90
35246;DHT22;21379;50.962;6.960;2023-04-06T04:58:17;1.60;99.90
35246;DHT22;21379;50.962;6.960;2023-04-06T05:00:53;1.60;99.90
35246;DHT22;21379;50.962;6.960;2023-04-06T05:03:23;1.60;99.90
35246;DHT22;21379;50.962;6.960;2023-04-06T05:06:05;1.60;99.90
35246;DHT22;21379;50.962;6.960;2023-04-06T05:08:35;1.70;99.90
35246;DHT22;21379;50.962;6.960;2023-04-06T05:11:02;1.80;99.90
35246;DHT22;21379;50.962;6.960;2023-04-06T05:13:34;1.90;99.90
35246;DHT22;21379;50.962;6.960;2023-04-06T05:16:07;1.90;99.90
35246;DHT22;21379;50.962;6.960;2023-04-06T05:18:36;1.90;99.90
35246;DHT22;21379;50.962;6.960;2023-04-06T05:21:05;1.90;99.90
35246;DHT22;21379;50.962;6.960;2023-04-06T05:23:44;1.90;99.90
35246;DHT22;21379;50.962;6.960;2023-04-06T05:26:11;1.90;99.90
35246;DHT22;21379;50.962;6.960;2023-04-06T05:28:38;1.90;99.90
35246;DHT22;21379;50.962;6.960;2023-04-06T05:31:05;2.10;99.90
35246;DHT22;21379;50.962;6.960;2023-04-06T05:33:43;2.20;99.90
35246;DHT22;21379;50.962;6.960;2023-04-06T05:36:14;2.20;99.90
35246;DHT22;21379;50.962;6.960;2023-04-06T05:38:44;2.20;99.90
35246;DHT22;21379;50.962;6.960;2023-04-06T05:41:29;2.40;99.90
35246;DHT22;21379;50.962;6.960;2023-04-06T05:43:56;2.50;99.90
35246;DHT22;21379;50.962;6.960;2023-04-06T05:46:24;2.60;99.90
35246;DHT22;21379;50.962;6.960;2023-04-06T05:48:54;2.70;99.90
35246;DHT22;21379;50.962;6.960;2023-04-06T05:51:24;2.70;99.90
35246;DHT22;21379;50.962;6.960;2023-04-06T05:53:52;2.80;99.90
35246;DHT22;21379;50.962;6.960;2023-04-06T05:56:19;2.80;99.90
35246;DHT22;21379;50.962;6.960;2023-04-06T05:58:46;2.80;99.90
35246;DHT22;21379;50.962;6.960;2023-04-06T06:01:21;2.90;99.90
35246;DHT22;21379;50.962;6.960;2023-04-06T06:03:48;2.90;99.90
35246;DHT22;21379;50.962;6.960;2023-04-06T06:06:17;3.00;99.90
35246;DHT22;21379;50.962;6.960;2023-04-06T06:09:07;3.10;99.90
35246;DHT22;21379;50.962;6.960;2023-04-06T06:11:39;3.20;99.90
35246;DHT22;21379;50.962;6.960;2023-04-06T06:14:07;3.20;99.90
35246;DHT22;21379;50.962;6.960;2023-04-06T06:16:38;3.40;99.90
35246;DHT22;21379;50.962;6.960;2023-04-06T06:19:06;3.50;99.90
35246;DHT22;21379;50.962;6.960;2023-04-06T06:21:35;3.60;99.90
35246;DHT22;21379;50.962;6.960;2023-04-06T06:24:05;3.70;99.90
35246;DHT22;21379;50.962;6.960;2023-04-06T06:26:32;3.80;99.90
35246;DHT22;21379;50.962;6.960;2023-04-06T06:29:01;3.90;99.90
35246;DHT22;21379;50.962;6.960;2023-04-06T06:31:29;4.10;99.90
35246;DHT22;21379;50.962;6.960;2023-04-06T06:33:56;4.30;99.90
35246;DHT22;21379;50.962;6.960;2023-04-06T06:36:25;4.50;99.90
35246;DHT22;21379;50.962;6.960;2023-04-06T06:38:53;4.70;99.90
35246;DHT22;21379;50.962;6.960;2023-04-06T06:41:20;4.80;99.90
35246;DHT22;21379;50.962;6.960;2023-04-06T06:43:48;4.90;99.90
35246;DHT22;21379;50.962;6.960;2023-04-06T06:46:17;5.10;99.90
35246;DHT22;21379;50.962;6.960;2023-04-06T06:48:44;5.30;99.90
35246;DHT22;21379;50.962;6.960;2023-04-06T06:51:11;5.50;99.90
35246;DHT22;21379;50.962;6.960;2023-04-06T06:53:40;5.60;99.90
35246;DHT22;21379;50.962;6.960;2023-04-06T06:56:08;5.60;99.90
35246;DHT22;21379;50.962;6.960;2023-04-06T06:58:35;5.60;99.90
35246;DHT22;21379;50.962;6.960;2023-04-06T07:01:02;5.80;99.90
35246;DHT22;21379;50.962;6.960;2023-04-06T07:03:31;6.00;99.90
35246;DHT22;21379;50.962;6.960;2023-04-06T07:05:59;6.10;99.90
35246;DHT22;21379;50.962;6.960;2023-04-06T07:08:26;6.10;99.50
35246;DHT22;21379;50.962;6.960;2023-04-06T07:10:53;6.30;99.80
35246;DHT22;21379;50.962;6.960;2023-04-06T07:13:23;6.40;99.50
35246;DHT22;21379;50.962;6.960;2023-04-06T07:15:55;6.60;99.90
35246;DHT22;21379;50.962;6.960;2023-04-06T07:18:22;6.80;99.30
35246;DHT22;21379;50.962;6.960;2023-04-06T07:20:49;7.10;99.30
35246;DHT22;21379;50.962;6.960;2023-04-06T07:23:17;7.50;99.40
35246;DHT22;21379;50.962;6.960;2023-04-06T07:25:44;7.90;99.00
35246;DHT22;21379;50.962;6.960;2023-04-06T07:28:11;8.40;97.80
35246;DHT22;21379;50.962;6.960;2023-04-06T07:30:40;9.00;97.10
35246;DHT22;21379;50.962;6.960;2023-04-06T07:33:09;9.70;95.90
35246;DHT22;21379;50.962;6.960;2023-04-06T07:35:37;10.30;95.40
35246;DHT22;21379;50.962;6.960;2023-04-06T07:38:05;10.90;94.70
35246;DHT22;21379;50.962;6.960;2023-04-06T07:40:33;11.30;93.90
35246;DHT22;21379;50.962;6.960;2023-04-06T07:43:01;10.90;93.60
35246;DHT22;21379;50.962;6.960;2023-04-06T07:45:28;10.00;93.30
35246;DHT22;21379;50.962;6.960;2023-04-06T07:47:57;9.40;94.40
35246;DHT22;21379;50.962;6.960;2023-04-06T07:50:26;9.70;94.20
35246;DHT22;21379;50.962;6.960;2023-04-06T07:52:54;10.40;94.60
35246;DHT22;21379;50.962;6.960;2023-04-06T07:55:21;10.90;93.50
35246;DHT22;21379;50.962;6.960;2023-04-06T07:57:48;10.70;92.80
35246;DHT22;21379;50.962;6.960;2023-04-06T08:00:16;11.00;92.70
35246;DHT22;21379;50.962;6.960;2023-04-06T08:02:43;10.50;93.70
35246;DHT22;21379;50.962;6.960;2023-04-06T08:05:12;10.30;93.40
35246;DHT22;21379;50.962;6.960;2023-04-06T08:07:39;10.30;93.10
35246;DHT22;21379;50.962;6.960;2023-04-06T08:10:07;10.20;92.50
35246;DHT22;21379;50.962;6.960;2023-04-06T08:12:35;9.90;93.50
35246;DHT22;21379;50.962;6.960;2023-04-06T08:15:02;10.20;93.40
35246;DHT22;21379;50.962;6.960;2023-04-06T08:17:31;10.70;94.00
35246;DHT22;21379;50.962;6.960;2023-04-06T08:19:59;11.20;93.30
35246;DHT22;21379;50.962;6.960;2023-04-06T08:22:28;12.00;92.60
35246;DHT22;21379;50.962;6.960;2023-04-06T08:24:55;12.30;92.30
35246;DHT22;21379;50.962;6.960;2023-04-06T08:27:22;12.40;91.60
35246;DHT22;21379;50.962;6.960;2023-04-06T08:29:49;12.20;90.90
35246;DHT22;21379;50.962;6.960;2023-04-06T08:32:16;11.70;91.10
35246;DHT22;21379;50.962;6.960;2023-04-06T08:34:43;11.60;91.70
35246;DHT22;21379;50.962;6.960;2023-04-06T08:37:10;11.40;91.70
35246;DHT22;21379;50.962;6.960;2023-04-06T08:39:39;11.40;92.10
35246;DHT22;21379;50.962;6.960;2023-04-06T08:42:12;11.20;91.40
35246;DHT22;21379;50.962;6.960;2023-04-06T08:44:42;11.10;91.50
35246;DHT22;21379;50.962;6.960;2023-04-06T08:47:09;11.10;91.60
35246;DHT22;21379;50.962;6.960;2023-04-06T08:49:37;11.10;91.90
35246;DHT22;21379;50.962;6.960;2023-04-06T08:52:06;11.50;92.20
35246;DHT22;21379;50.962;6.960;2023-04-06T08:54:33;11.70;91.20
35246;DHT22;21379;50.962;6.960;2023-04-06T08:57:02;11.70;91.90
35246;DHT22;21379;50.962;6.960;2023-04-06T08:59:30;12.00;91.60
35246;DHT22;21379;50.962;6.960;2023-04-06T09:01:58;12.10;91.40
35246;DHT22;21379;50.962;6.960;2023-04-06T09:04:26;12.80;91.60
35246;DHT22;21379;50.962;6.960;2023-04-06T09:06:53;13.70;91.50
35246;DHT22;21379;50.962;6.960;2023-04-06T09:09:20;13.70;89.10
35246;DHT22;21379;50.962;6.960;2023-04-06T09:11:51;13.00;90.50
35246;DHT22;21379;50.962;6.960;2023-04-06T09:14:35;13.10;90.10
35246;DHT22;21379;50.962;6.960;2023-04-06T09:17:03;13.20;89.70
35246;DHT22;21379;50.962;6.960;2023-04-06T09:19:31;12.90;90.40
35246;DHT22;21379;50.962;6.960;2023-04-06T09:22:02;13.10;90.30
35246;DHT22;21379;50.962;6.960;2023-04-06T09:24:40;13.40;91.30
35246;DHT22;21379;50.962;6.960;2023-04-06T09:27:07;13.90;90.80
35246;DHT22;21379;50.962;6.960;2023-04-06T09:29:35;14.20;91.00
35246;DHT22;21379;50.962;6.960;2023-04-06T09:32:03;14.10;90.20
35246;DHT22;21379;50.962;6.960;2023-04-06T09:34:31;14.10;90.50
35246;DHT22;21379;50.962;6.960;2023-04-06T09:36:58;14.20;90.30
35246;DHT22;21379;50.962;6.960;2023-04-06T09:39:25;13.60;90.30
35246;DHT22;21379;50.962;6.960;2023-04-06T09:41:54;13.70;90.60
35246;DHT22;21379;50.962;6.960;2023-04-06T09:44:21;13.70;90.90
35246;DHT22;21379;50.962;6.960;2023-04-06T09:46:51;13.90;90.90
35246;DHT22;21379;50.962;6.960;2023-04-06T09:49:20;14.10;91.00
35246;DHT22;21379;50.962;6.960;2023-04-06T09:51:51;14.20;90.50
35246;DHT22;21379;50.962;6.960;2023-04-06T09:54:22;14.40;90.70
35246;DHT22;21379;50.962;6.960;2023-04-06T09:56:52;14.70;91.00
35246;DHT22;21379;50.962;6.960;2023-04-06T09:59:31;14.50;90.00
35246;DHT22;21379;50.962;6.960;2023-04-06T10:02:04;14.30;90.70
35246;DHT22;21379;50.962;6.960;2023-04-06T10:04:37;14.60;91.40
35246;DHT22;21379;50.962;6.960;2023-04-06T10:07:07;15.50;90.80
35246;DHT22;21379;50.962;6.960;2023-04-06T10:09:35;15.10;89.70
35246;DHT22;21379;50.962;6.960;2023-04-06T10:12:04;15.60;89.60
35246;DHT22;21379;50.962;6.960;2023-04-06T10:14:33;16.40;90.70
35246;DHT22;21379;50.962;6.960;2023-04-06T10:17:04;17.00;89.50
35246;DHT22;21379;50.962;6.960;2023-04-06T10:19:42;16.50;88.70
35246;DHT22;21379;50.962;6.960;2023-04-06T10:22:12;16.80;88.50
35246;DHT22;21379;50.962;6.960;2023-04-06T10:24:43;17.00;87.30
35246;DHT22;21379;50.962;6.960;2023-04-06T10:27:10;17.10;88.40
35246;DHT22;21379;50.962;6.960;2023-04-06T10:29:44;16.90;87.60
35246;DHT22;21379;50.962;6.960;2023-04-06T10:32:13;16.60;87.70
35246;DHT22;21379;50.962;6.960;2023-04-06T10:34:40;16.70;88.40
35246;DHT22;21379;50.962;6.960;2023-04-06T10:37:12;16.80;88.10
35246;DHT22;21379;50.962;6.960;2023-04-06T10:39:52;16.60;89.20
35246;DHT22;21379;50.962;6.960;2023-04-06T10:42:24;16.00;87.00
35246;DHT22;21379;50.962;6.960;2023-04-06T10:44:51;15.90;88.40
35246;DHT22;21379;50.962;6.960;2023-04-06T10:47:19;16.20;88.40
35246;DHT22;21379;50.962;6.960;2023-04-06T10:49:46;16.20;88.20
35246;DHT22;21379;50.962;6.960;2023-04-06T10:52:13;16.30;89.50
35246;DHT22;21379;50.962;6.960;2023-04-06T10:54:42;16.00;86.20
35246;DHT22;21379;50.962;6.960;2023-04-06T10:57:10;16.10;87.30
35246;DHT22;21379;50.962;6.960;2023-04-06T10:59:41;16.30;86.90
35246;DHT22;21379;50.962;6.960;2023-04-06T11:02:08;16.10;86.40
35246;DHT22;21379;50.962;6.960;2023-04-06T11:04:37;15.50;85.80
35246;DHT22;21379;50.962;6.960;2023-04-06T11:07:04;14.90;85.50
35246;DHT22;21379;50.962;6.960;2023-04-06T11:09:31;14.50;86.90
35246;DHT22;21379;50.962;6.960;2023-04-06T11:11:58;14.50;86.50
35246;DHT22;21379;50.962;6.960;2023-04-06T11:14:26;14.30;87.10
35246;DHT22;21379;50.962;6.960;2023-04-06T11:16:53;14.60;87.20
35246;DHT22;21379;50.962;6.960;2023-04-06T11:19:20;14.80;87.60
35246;DHT22;21379;50.962;6.960;2023-04-06T11:21:49;14.20;87.20
35246;DHT22;21379;50.962;6.960;2023-04-06T11:24:18;14.30;88.30
35246;DHT22;21379;50.962;6.960;2023-04-06T11:26:46;14.70;88.30
35246;DHT22;21379;50.962;6.960;2023-04-06T11:29:16;14.80;86.20
35246;DHT22;21379;50.962;6.960;2023-04-06T11:31:46;15.30;88.10
35246;DHT22;21379;50.962;6.960;2023-04-06T11:34:16;15.50;86.00
35246;DHT22;21379;50.962;6.960;2023-04-06T11:36:44;15.30;86.40
35246;DHT22;21379;50.962;6.960;2023-04-06T11:39:17;14.90;86.40
35246;DHT22;21379;50.962;6.960;2023-04-06T11:41:47;15.20;85.50
35246;DHT22;21379;50.962;6.960;2023-04-06T11:44:14;15.30;86.30
35246;DHT22;21379;50.962;6.960;2023-04-06T11:46:51;15.40;86.10
35246;DHT22;21379;50.962;6.960;2023-04-06T11:49:18;14.80;85.10
35246;DHT22;21379;50.962;6.960;2023-04-06T11:51:46;14.10;86.00
35246;DHT22;21379;50.962;6.960;2023-04-06T11:54:14;14.00;86.30
35246;DHT22;21379;50.962;6.960;2023-04-06T11:56:46;14.00;85.70
35246;DHT22;21379;50.962;6.960;2023-04-06T11:59:13;14.30;86.20
35246;DHT22;21379;50.962;6.960;2023-04-06T12:01:45;14.10;85.80
35246;DHT22;21379;50.962;6.960;2023-04-06T12:04:12;14.40;86.10
35246;DHT22;21379;50.962;6.960;2023-04-06T12:06:39;14.60;85.20
35246;DHT22;21379;50.962;6.960;2023-04-06T12:09:06;14.50;85.60
35246;DHT22;21379;50.962;6.960;2023-04-06T12:11:34;15.00;86.70
35246;DHT22;21379;50.962;6.960;2023-04-06T12:14:01;14.90;85.00
35246;DHT22;21379;50.962;6.960;2023-04-06T12:16:30;15.20;85.90
35246;DHT22;21379;50.962;6.960;2023-04-06T12:18:57;14.90;86.10
35246;DHT22;21379;50.962;6.960;2023-04-06T12:21:24;15.00;86.40
35246;DHT22;21379;50.962;6.960;2023-04-06T12:23:51;14.90;85.20
35246;DHT22;21379;50.962;6.960;2023-04-06T12:26:18;15.10;85.90
35246;DHT22;21379;50.962;6.960;2023-04-06T12:28:47;15.60;85.40
35246;DHT22;21379;50.962;6.960;2023-04-06T12:31:15;15.10;84.20
35246;DHT22;21379;50.962;6.960;2023-04-06T12:33:42;14.70;84.00
35246;DHT22;21379;50.962;6.960;2023-04-06T12:36:11;14.80;85.10
35246;DHT22;21379;50.962;6.960;2023-04-06T12:38:39;14.60;84.80
35246;DHT22;21379;50.962;6.960;2023-04-06T12:41:06;14.70;84.80
35246;DHT22;21379;50.962;6.960;2023-04-06T12:43:34;14.40;86.00
35246;DHT22;21379;50.962;6.960;2023-04-06T12:46:02;14.70;85.40
35246;DHT22;21379;50.962;6.960;2023-04-06T12:48:29;14.30;86.00
35246;DHT22;21379;50.962;6.960;2023-04-06T12:50:58;14.40;86.20
35246;DHT22;21379;50.962;6.960;2023-04-06T12:53:25;14.20;87.10
35246;DHT22;21379;50.962;6.960;2023-04-06T12:55:53;14.20;87.80
35246;DHT22;21379;50.962;6.960;2023-04-06T12:58:21;14.60;88.20
35246;DHT22;21379;50.962;6.960;2023-04-06T13:00:49;14.20;88.00
35246;DHT22;21379;50.962;6.960;2023-04-06T13:03:18;14.40;88.30
35246;DHT22;21379;50.962;6.960;2023-04-06T13:05:45;14.00;88.20
35246;DHT22;21379;50.962;6.960;2023-04-06T13:08:13;14.20;88.90
35246;DHT22;21379;50.962;6.960;2023-04-06T13:10:43;14.60;89.30
35246;DHT22;21379;50.962;6.960;2023-04-06T13:13:10;14.00;88.70
35246;DHT22;21379;50.962;6.960;2023-04-06T13:15:37;13.90;90.00
35246;DHT22;21379;50.962;6.960;2023-04-06T13:18:04;14.00;90.30
35246;DHT22;21379;50.962;6.960;2023-04-06T13:20:33;14.30;89.80
35246;DHT22;21379;50.962;6.960;2023-04-06T13:23:00;14.20;89.50
35246;DHT22;21379;50.962;6.960;2023-04-06T13:25:27;13.60;90.50
35246;DHT22;21379;50.962;6.960;2023-04-06T13:27:55;13.50;90.70
35246;DHT22;21379;50.962;6.960;2023-04-06T13:30:22;13.30;91.40
35246;DHT22;21379;50.962;6.960;2023-04-06T13:32:49;13.10;91.80
35246;DHT22;21379;50.962;6.960;2023-04-06T13:35:16;13.10;92.00
35246;DHT22;21379;50.962;6.960;2023-04-06T13:37:44;13.00;92.00
35246;DHT22;21379;50.962;6.960;2023-04-06T13:40:12;12.90;92.10
35246;DHT22;21379;50.962;6.960;2023-04-06T13:42:39;13.20;92.30
35246;DHT22;21379;50.962;6.960;2023-04-06T13:45:10;13.40;91.50
35246;DHT22;21379;50.962;6.960;2023-04-06T13:47:37;13.10;91.70
35246;DHT22;21379;50.962;6.960;2023-04-06T13:50:05;12.60;91.90
35246;DHT22;21379;50.962;6.960;2023-04-06T13:52:32;12.70;92.50
35246;DHT22;21379;50.962;6.960;2023-04-06T13:55:02;12.40;92.80
35246;DHT22;21379;50.962;6.960;2023-04-06T13:57:29;12.20;93.10
35246;DHT22;21379;50.962;6.960;2023-04-06T13:59:56;12.20;93.20
35246;DHT22;21379;50.962;6.960;2023-04-06T14:02:23;12.10;93.20
35246;DHT22;21379;50.962;6.960;2023-04-06T14:04:52;12.00;93.40
35246;DHT22;21379;50.962;6.960;2023-04-06T14:07:21;11.90;93.80
35246;DHT22;21379;50.962;6.960;2023-04-06T14:09:48;11.80;93.90
35246;DHT22;21379;50.962;6.960;2023-04-06T14:12:16;11.80;94.30
35246;DHT22;21379;50.962;6.960;2023-04-06T14:14:43;11.60;94.40
35246;DHT22;21379;50.962;6.960;2023-04-06T14:17:10;11.60;95.00
35246;DHT22;21379;50.962;6.960;2023-04-06T14:19:37;11.70;95.40
35246;DHT22;21379;50.962;6.960;2023-04-06T14:22:04;11.80;95.60
35246;DHT22;21379;50.962;6.960;2023-04-06T14:24:31;11.80;95.60
35246;DHT22;21379;50.962;6.960;2023-04-06T14:26:58;11.80;95.90
35246;DHT22;21379;50.962;6.960;2023-04-06T14:29:28;11.90;96.00
35246;DHT22;21379;50.962;6.960;2023-04-06T14:31:54;12.00;96.40
35246;DHT22;21379;50.962;6.960;2023-04-06T14:34:25;12.00;97.00
35246;DHT22;21379;50.962;6.960;2023-04-06T14:36:52;11.80;97.90
35246;DHT22;21379;50.962;6.960;2023-04-06T14:39:19;11.60;98.20
35246;DHT22;21379;50.962;6.960;2023-04-06T14:41:46;11.40;98.60
35246;DHT22;21379;50.962;6.960;2023-04-06T14:44:14;11.30;98.80
35246;DHT22;21379;50.962;6.960;2023-04-06T14:46:42;11.20;99.10
35246;DHT22;21379;50.962;6.960;2023-04-06T14:49:09;11.10;99.10
35246;DHT22;21379;50.962;6.960;2023-04-06T14:51:36;11.20;99.40
35246;DHT22;21379;50.962;6.960;2023-04-06T14:54:03;11.20;99.90
35246;DHT22;21379;50.962;6.960;2023-04-06T14:56:30;11.10;99.90
35246;DHT22;21379;50.962;6.960;2023-04-06T14:58:58;11.10;99.90
35246;DHT22;21379;50.962;6.960;2023-04-06T15:01:27;11.00;99.90
35246;DHT22;21379;50.962;6.960;2023-04-06T15:03:55;10.90;99.90
35246;DHT22;21379;50.962;6.960;2023-04-06T15:06:22;10.80;99.90
35246;DHT22;21379;50.962;6.960;2023-04-06T15:08:49;10.80;99.90
35246;DHT22;21379;50.962;6.960;2023-04-06T15:11:16;10.70;99.90
35246;DHT22;21379;50.962;6.960;2023-04-06T15:13:43;10.60;99.90
35246;DHT22;21379;50.962;6.960;2023-04-06T15:16:10;10.60;99.90
35246;DHT22;21379;50.962;6.960;2023-04-06T15:18:37;10.50;99.90
35246;DHT22;21379;50.962;6.960;2023-04-06T15:21:05;10.50;99.90
35246;DHT22;21379;50.962;6.960;2023-04-06T15:23:33;10.40;99.90
35246;DHT22;21379;50.962;6.960;2023-04-06T15:26:00;10.30;99.90
35246;DHT22;21379;50.962;6.960;2023-04-06T15:28:27;10.00;99.90
35246;DHT22;21379;50.962;6.960;2023-04-06T15:30:55;10.00;99.90
35246;DHT22;21379;50.962;6.960;2023-04-06T15:33:23;10.00;99.90
35246;DHT22;21379;50.962;6.960;2023-04-06T15:35:50;9.80;99.90
35246;DHT22;21379;50.962;6.960;2023-04-06T15:38:19;9.80;99.90
35246;DHT22;21379;50.962;6.960;2023-04-06T15:40:47;9.60;99.90
35246;DHT22;21379;50.962;6.960;2023-04-06T15:43:15;9.50;99.90
35246;DHT22;21379;50.962;6.960;2023-04-06T15:45:42;9.40;99.90
35246;DHT22;21379;50.962;6.960;2023-04-06T15:48:09;9.30;99.90